sensor_id;sensor_type;location;lat;lon;timestamp;P1;durP1;ratioP1;P2;durP2;ratioP2
13805;SDS011;6974;53.606;9.872;2023-02-28T00:01:07;6.60;;;3.77;;
13805;SDS011;6974;53.606;9.872;2023-02-28T00:03:35;6.20;;;3.70;;
13805;SDS011;6974;53.606;9.872;2023-02-28T00:06:03;7.97;;;4.10;;
13805;SDS011;6974;53.606;9.872;2023-02-28T00:08:32;9.67;;;4.80;;
13805;SDS011;6974;53.606;9.872;2023-02-28T00:11:00;5.60;;;4.40;;
13805;SDS011;6974;53.606;9.872;2023-02-28T00:13:28;9.17;;;4.70;;
13805;SDS011;6974;53.606;9.872;2023-02-28T00:15:59;6.80;;;4.23;;
13805;SDS011;6974;53.606;9.872;2023-02-28T00:18:28;8.40;;;4.37;;
13805;SDS011;6974;53.606;9.872;2023-02-28T00:20:57;8.73;;;4.50;;
13805;SDS011;6974;53.606;9.872;2023-02-28T00:23:24;6.93;;;4.57;;
13805;SDS011;6974;53.606;9.872;2023-02-28T00:25:51;6.83;;;4.57;;
13805;SDS011;6974;53.606;9.872;2023-02-28T00:28:19;9.83;;;4.53;;
13805;SDS011;6974;53.606;9.872;2023-02-28T00:30:47;6.77;;;4.60;;
13805;SDS011;6974;53.606;9.872;2023-02-28T00:33:15;10.70;;;4.77;;
13805;SDS011;6974;53.606;9.872;2023-02-28T00:35:42;7.47;;;4.60;;
13805;SDS011;6974;53.606;9.872;2023-02-28T00:38:13;10.13;;;4.67;;
13805;SDS011;6974;53.606;9.872;2023-02-28T00:40:40;8.10;;;4.90;;
13805;SDS011;6974;53.606;9.872;2023-02-28T00:43:08;9.87;;;5.30;;
13805;SDS011;6974;53.606;9.872;2023-02-28T00:45:35;8.80;;;5.00;;
13805;SDS011;6974;53.606;9.872;2023-02-28T00:48:02;8.30;;;4.43;;
13805;SDS011;6974;53.606;9.872;2023-02-28T00:50:29;9.27;;;5.50;;
13805;SDS011;6974;53.606;9.872;2023-02-28T00:52:57;6.60;;;4.73;;
13805;SDS011;6974;53.606;9.872;2023-02-28T00:55:25;10.33;;;4.60;;
13805;SDS011;6974;53.606;9.872;2023-02-28T00:57:53;8.03;;;4.37;;
13805;SDS011;6974;53.606;9.872;2023-02-28T01:00:20;9.37;;;4.63;;
13805;SDS011;6974;53.606;9.872;2023-02-28T01:02:47;10.47;;;4.37;;
13805;SDS011;6974;53.606;9.872;2023-02-28T01:05:14;7.00;;;4.30;;
13805;SDS011;6974;53.606;9.872;2023-02-28T01:07:41;8.10;;;4.60;;
13805;SDS011;6974;53.606;9.872;2023-02-28T01:10:09;7.23;;;4.60;;
13805;SDS011;6974;53.606;9.872;2023-02-28T01:12:38;7.37;;;4.30;;
13805;SDS011;6974;53.606;9.872;2023-02-28T01:15:05;8.27;;;4.10;;
13805;SDS011;6974;53.606;9.872;2023-02-28T01:17:33;6.33;;;4.47;;
13805;SDS011;6974;53.606;9.872;2023-02-28T01:19:59;9.93;;;5.03;;
13805;SDS011;6974;53.606;9.872;2023-02-28T01:22:26;9.07;;;4.93;;
13805;SDS011;6974;53.606;9.872;2023-02-28T01:24:53;7.60;;;4.37;;
13805;SDS011;6974;53.606;9.872;2023-02-28T01:27:20;9.37;;;4.73;;
13805;SDS011;6974;53.606;9.872;2023-02-28T01:29:48;10.60;;;4.50;;
13805;SDS011;6974;53.606;9.872;2023-02-28T01:32:17;6.67;;;4.20;;
13805;SDS011;6974;53.606;9.872;2023-02-28T01:34:43;10.83;;;4.43;;
13805;SDS011;6974;53.606;9.872;2023-02-28T01:37:10;7.03;;;4.00;;
13805;SDS011;6974;53.606;9.872;2023-02-28T01:39:37;9.27;;;4.10;;
13805;SDS011;6974;53.606;9.872;2023-02-28T01:42:04;6.80;;;4.67;;
13805;SDS011;6974;53.606;9.872;2023-02-28T01:47:30;7.77;;;5.00;;
13805;SDS011;6974;53.606;9.872;2023-02-28T01:49:59;8.27;;;5.47;;
13805;SDS011;6974;53.606;9.872;2023-02-28T01:52:29;9.37;;;5.33;;
13805;SDS011;6974;53.606;9.872;2023-02-28T01:54:58;8.87;;;5.10;;
13805;SDS011;6974;53.606;9.872;2023-02-28T01:57:28;7.80;;;4.20;;
13805;SDS011;6974;53.606;9.872;2023-02-28T02:00:05;7.27;;;3.90;;
13805;SDS011;6974;53.606;9.872;2023-02-28T02:02:35;7.37;;;3.97;;
13805;SDS011;6974;53.606;9.872;2023-02-28T02:05:05;6.77;;;3.87;;
13805;SDS011;6974;53.606;9.872;2023-02-28T02:07:34;7.07;;;4.40;;
13805;SDS011;6974;53.606;9.872;2023-02-28T02:10:04;7.80;;;4.00;;
13805;SDS011;6974;53.606;9.872;2023-02-28T02:12:37;5.10;;;4.07;;
13805;SDS011;6974;53.606;9.872;2023-02-28T02:15:16;7.90;;;4.50;;
13805;SDS011;6974;53.606;9.872;2023-02-28T02:17:49;4.40;;;3.67;;
13805;SDS011;6974;53.606;9.872;2023-02-28T02:20:27;7.47;;;4.13;;
13805;SDS011;6974;53.606;9.872;2023-02-28T02:23:17;6.67;;;3.97;;
13805;SDS011;6974;53.606;9.872;2023-02-28T02:26:28;6.27;;;3.97;;
13805;SDS011;6974;53.606;9.872;2023-02-28T02:29:16;6.77;;;4.57;;
13805;SDS011;6974;53.606;9.872;2023-02-28T02:32:11;6.73;;;4.17;;
13805;SDS011;6974;53.606;9.872;2023-02-28T02:34:49;6.80;;;4.27;;
13805;SDS011;6974;53.606;9.872;2023-02-28T02:37:25;8.53;;;4.73;;
13805;SDS011;6974;53.606;9.872;2023-02-28T02:40:00;9.83;;;4.70;;
13805;SDS011;6974;53.606;9.872;2023-02-28T02:42:36;9.30;;;4.80;;
13805;SDS011;6974;53.606;9.872;2023-02-28T02:45:09;9.03;;;4.57;;
13805;SDS011;6974;53.606;9.872;2023-02-28T02:47:39;6.93;;;4.17;;
13805;SDS011;6974;53.606;9.872;2023-02-28T02:50:12;7.63;;;3.87;;
13805;SDS011;6974;53.606;9.872;2023-02-28T02:52:42;7.80;;;3.70;;
13805;SDS011;6974;53.606;9.872;2023-02-28T02:55:14;5.60;;;3.40;;
13805;SDS011;6974;53.606;9.872;2023-02-28T02:57:44;8.47;;;5.30;;
13805;SDS011;6974;53.606;9.872;2023-02-28T03:00:13;6.07;;;4.30;;
13805;SDS011;6974;53.606;9.872;2023-02-28T03:02:43;7.30;;;4.13;;
13805;SDS011;6974;53.606;9.872;2023-02-28T03:05:17;4.67;;;3.20;;
13805;SDS011;6974;53.606;9.872;2023-02-28T03:07:47;5.87;;;3.57;;
13805;SDS011;6974;53.606;9.872;2023-02-28T03:10:28;5.57;;;3.67;;
13805;SDS011;6974;53.606;9.872;2023-02-28T03:13:09;5.80;;;3.63;;
13805;SDS011;6974;53.606;9.872;2023-02-28T03:15:47;13.87;;;7.67;;
13805;SDS011;6974;53.606;9.872;2023-02-28T03:18:24;6.53;;;4.63;;
13805;SDS011;6974;53.606;9.872;2023-02-28T03:21:00;6.80;;;3.40;;
13805;SDS011;6974;53.606;9.872;2023-02-28T03:23:34;5.97;;;3.37;;
13805;SDS011;6974;53.606;9.872;2023-02-28T03:26:11;6.83;;;3.00;;
13805;SDS011;6974;53.606;9.872;2023-02-28T03:28:47;6.37;;;3.30;;
13805;SDS011;6974;53.606;9.872;2023-02-28T03:31:21;6.07;;;3.27;;
13805;SDS011;6974;53.606;9.872;2023-02-28T03:33:54;5.80;;;3.80;;
13805;SDS011;6974;53.606;9.872;2023-02-28T03:36:27;6.63;;;3.70;;
13805;SDS011;6974;53.606;9.872;2023-02-28T03:38:56;5.83;;;3.80;;
13805;SDS011;6974;53.606;9.872;2023-02-28T03:41:29;6.83;;;3.70;;
13805;SDS011;6974;53.606;9.872;2023-02-28T03:44:00;8.33;;;4.00;;
13805;SDS011;6974;53.606;9.872;2023-02-28T03:46:32;6.30;;;3.73;;
13805;SDS011;6974;53.606;9.872;2023-02-28T03:49:03;4.03;;;3.50;;
13805;SDS011;6974;53.606;9.872;2023-02-28T03:51:38;6.70;;;3.60;;
13805;SDS011;6974;53.606;9.872;2023-02-28T03:54:08;6.57;;;4.17;;
13805;SDS011;6974;53.606;9.872;2023-02-28T03:56:39;9.27;;;5.80;;
13805;SDS011;6974;53.606;9.872;2023-02-28T03:59:10;9.27;;;6.13;;
13805;SDS011;6974;53.606;9.872;2023-02-28T04:01:41;8.60;;;5.73;;
13805;SDS011;6974;53.606;9.872;2023-02-28T04:04:10;8.60;;;4.90;;
13805;SDS011;6974;53.606;9.872;2023-02-28T04:06:39;7.80;;;4.90;;
13805;SDS011;6974;53.606;9.872;2023-02-28T04:09:08;7.80;;;4.80;;
13805;SDS011;6974;53.606;9.872;2023-02-28T04:11:36;5.60;;;3.73;;
13805;SDS011;6974;53.606;9.872;2023-02-28T04:14:05;7.17;;;3.63;;
13805;SDS011;6974;53.606;9.872;2023-02-28T04:16:33;8.80;;;3.50;;
13805;SDS011;6974;53.606;9.872;2023-02-28T04:19:04;6.47;;;3.70;;
13805;SDS011;6974;53.606;9.872;2023-02-28T04:21:33;7.50;;;4.67;;
13805;SDS011;6974;53.606;9.872;2023-02-28T04:24:03;7.27;;;4.23;;
13805;SDS011;6974;53.606;9.872;2023-02-28T04:26:30;8.60;;;5.17;;
13805;SDS011;6974;53.606;9.872;2023-02-28T04:28:57;8.93;;;4.40;;
13805;SDS011;6974;53.606;9.872;2023-02-28T04:31:24;9.60;;;4.50;;
13805;SDS011;6974;53.606;9.872;2023-02-28T04:33:51;8.00;;;3.77;;
13805;SDS011;6974;53.606;9.872;2023-02-28T04:36:18;8.23;;;4.30;;
13805;SDS011;6974;53.606;9.872;2023-02-28T04:38:45;5.63;;;3.90;;
13805;SDS011;6974;53.606;9.872;2023-02-28T04:41:13;5.60;;;4.37;;
13805;SDS011;6974;53.606;9.872;2023-02-28T04:43:40;12.43;;;7.67;;
13805;SDS011;6974;53.606;9.872;2023-02-28T04:46:07;9.50;;;7.27;;
13805;SDS011;6974;53.606;9.872;2023-02-28T04:48:36;12.80;;;7.40;;
13805;SDS011;6974;53.606;9.872;2023-02-28T04:51:05;11.30;;;7.40;;
13805;SDS011;6974;53.606;9.872;2023-02-28T04:53:34;9.67;;;6.70;;
13805;SDS011;6974;53.606;9.872;2023-02-28T04:56:03;9.13;;;6.27;;
13805;SDS011;6974;53.606;9.872;2023-02-28T04:58:32;13.50;;;5.93;;
13805;SDS011;6974;53.606;9.872;2023-02-28T05:01:03;8.63;;;5.80;;
13805;SDS011;6974;53.606;9.872;2023-02-28T05:03:37;9.47;;;5.50;;
13805;SDS011;6974;53.606;9.872;2023-02-28T05:06:05;8.53;;;5.27;;
13805;SDS011;6974;53.606;9.872;2023-02-28T05:08:32;7.87;;;4.90;;
13805;SDS011;6974;53.606;9.872;2023-02-28T05:10:59;6.27;;;4.90;;
13805;SDS011;6974;53.606;9.872;2023-02-28T05:13:26;9.53;;;5.20;;
13805;SDS011;6974;53.606;9.872;2023-02-28T05:15:55;8.93;;;5.50;;
13805;SDS011;6974;53.606;9.872;2023-02-28T05:18:22;8.70;;;5.00;;
13805;SDS011;6974;53.606;9.872;2023-02-28T05:20:49;7.63;;;5.43;;
13805;SDS011;6974;53.606;9.872;2023-02-28T05:23:15;8.77;;;5.33;;
13805;SDS011;6974;53.606;9.872;2023-02-28T05:25:45;8.17;;;5.47;;
13805;SDS011;6974;53.606;9.872;2023-02-28T05:28:12;12.63;;;5.80;;
13805;SDS011;6974;53.606;9.872;2023-02-28T05:30:39;8.70;;;5.17;;
13805;SDS011;6974;53.606;9.872;2023-02-28T05:33:10;11.90;;;6.90;;
13805;SDS011;6974;53.606;9.872;2023-02-28T05:35:37;15.83;;;8.77;;
13805;SDS011;6974;53.606;9.872;2023-02-28T05:38:05;15.70;;;8.50;;
13805;SDS011;6974;53.606;9.872;2023-02-28T05:40:32;13.47;;;6.13;;
13805;SDS011;6974;53.606;9.872;2023-02-28T05:42:58;10.53;;;6.17;;
13805;SDS011;6974;53.606;9.872;2023-02-28T05:45:26;8.30;;;5.40;;
13805;SDS011;6974;53.606;9.872;2023-02-28T05:47:53;11.33;;;6.53;;
13805;SDS011;6974;53.606;9.872;2023-02-28T05:50:21;10.27;;;6.50;;
13805;SDS011;6974;53.606;9.872;2023-02-28T05:52:49;11.60;;;7.10;;
13805;SDS011;6974;53.606;9.872;2023-02-28T05:55:16;13.93;;;7.57;;
13805;SDS011;6974;53.606;9.872;2023-02-28T05:57:43;13.90;;;7.40;;
13805;SDS011;6974;53.606;9.872;2023-02-28T06:00:10;9.00;;;6.70;;
13805;SDS011;6974;53.606;9.872;2023-02-28T06:02:40;11.43;;;6.97;;
13805;SDS011;6974;53.606;9.872;2023-02-28T06:05:08;10.53;;;6.83;;
13805;SDS011;6974;53.606;9.872;2023-02-28T06:07:41;10.10;;;6.57;;
13805;SDS011;6974;53.606;9.872;2023-02-28T06:10:08;11.07;;;6.93;;
13805;SDS011;6974;53.606;9.872;2023-02-28T06:12:36;12.00;;;6.10;;
13805;SDS011;6974;53.606;9.872;2023-02-28T06:15:04;9.23;;;6.27;;
13805;SDS011;6974;53.606;9.872;2023-02-28T06:17:31;10.57;;;5.63;;
13805;SDS011;6974;53.606;9.872;2023-02-28T06:19:58;6.77;;;5.43;;
13805;SDS011;6974;53.606;9.872;2023-02-28T06:22:25;9.23;;;5.60;;
13805;SDS011;6974;53.606;9.872;2023-02-28T06:24:53;8.43;;;5.73;;
13805;SDS011;6974;53.606;9.872;2023-02-28T06:27:22;8.83;;;5.80;;
13805;SDS011;6974;53.606;9.872;2023-02-28T06:29:48;9.03;;;5.70;;
13805;SDS011;6974;53.606;9.872;2023-02-28T06:32:19;6.93;;;5.17;;
13805;SDS011;6974;53.606;9.872;2023-02-28T06:34:46;11.13;;;5.77;;
13805;SDS011;6974;53.606;9.872;2023-02-28T06:37:13;8.90;;;6.70;;
13805;SDS011;6974;53.606;9.872;2023-02-28T06:39:40;12.97;;;7.50;;
13805;SDS011;6974;53.606;9.872;2023-02-28T06:42:08;12.17;;;7.20;;
13805;SDS011;6974;53.606;9.872;2023-02-28T06:44:35;12.30;;;6.57;;
13805;SDS011;6974;53.606;9.872;2023-02-28T06:47:03;14.07;;;8.63;;
13805;SDS011;6974;53.606;9.872;2023-02-28T06:49:32;10.47;;;6.97;;
13805;SDS011;6974;53.606;9.872;2023-02-28T06:51:59;11.67;;;7.10;;
13805;SDS011;6974;53.606;9.872;2023-02-28T06:54:27;10.27;;;7.07;;
13805;SDS011;6974;53.606;9.872;2023-02-28T06:56:54;11.87;;;7.10;;
13805;SDS011;6974;53.606;9.872;2023-02-28T06:59:22;12.60;;;7.27;;
13805;SDS011;6974;53.606;9.872;2023-02-28T07:01:49;10.90;;;7.13;;
13805;SDS011;6974;53.606;9.872;2023-02-28T07:04:15;13.40;;;7.33;;
13805;SDS011;6974;53.606;9.872;2023-02-28T07:06:42;11.20;;;7.33;;
13805;SDS011;6974;53.606;9.872;2023-02-28T07:09:09;14.77;;;8.40;;
13805;SDS011;6974;53.606;9.872;2023-02-28T07:11:38;17.00;;;8.73;;
13805;SDS011;6974;53.606;9.872;2023-02-28T07:14:05;15.73;;;8.43;;
13805;SDS011;6974;53.606;9.872;2023-02-28T07:16:35;15.10;;;9.07;;
13805;SDS011;6974;53.606;9.872;2023-02-28T07:19:02;15.70;;;9.47;;
13805;SDS011;6974;53.606;9.872;2023-02-28T07:21:29;15.23;;;10.10;;
13805;SDS011;6974;53.606;9.872;2023-02-28T07:23:57;17.13;;;11.70;;
13805;SDS011;6974;53.606;9.872;2023-02-28T07:26:25;24.33;;;13.40;;
13805;SDS011;6974;53.606;9.872;2023-02-28T07:28:52;23.17;;;13.17;;
13805;SDS011;6974;53.606;9.872;2023-02-28T07:31:19;22.40;;;13.03;;
13805;SDS011;6974;53.606;9.872;2023-02-28T07:33:48;16.30;;;11.00;;
13805;SDS011;6974;53.606;9.872;2023-02-28T07:36:15;18.83;;;10.07;;
13805;SDS011;6974;53.606;9.872;2023-02-28T07:38:45;10.50;;;4.67;;
13805;SDS011;6974;53.606;9.872;2023-02-28T07:41:14;7.70;;;4.83;;
13805;SDS011;6974;53.606;9.872;2023-02-28T07:43:42;9.37;;;5.00;;
13805;SDS011;6974;53.606;9.872;2023-02-28T07:46:10;5.53;;;4.47;;
13805;SDS011;6974;53.606;9.872;2023-02-28T07:48:40;8.03;;;3.70;;
13805;SDS011;6974;53.606;9.872;2023-02-28T07:51:08;6.17;;;3.80;;
13805;SDS011;6974;53.606;9.872;2023-02-28T07:53:35;5.13;;;3.37;;
13805;SDS011;6974;53.606;9.872;2023-02-28T07:56:03;4.73;;;3.27;;
13805;SDS011;6974;53.606;9.872;2023-02-28T07:58:31;4.07;;;3.30;;
13805;SDS011;6974;53.606;9.872;2023-02-28T08:01:04;5.37;;;3.40;;
13805;SDS011;6974;53.606;9.872;2023-02-28T08:03:31;5.73;;;3.53;;
13805;SDS011;6974;53.606;9.872;2023-02-28T08:05:59;6.57;;;4.17;;
13805;SDS011;6974;53.606;9.872;2023-02-28T08:08:29;5.87;;;3.80;;
13805;SDS011;6974;53.606;9.872;2023-02-28T08:10:57;8.83;;;4.17;;
13805;SDS011;6974;53.606;9.872;2023-02-28T08:13:26;6.50;;;3.70;;
13805;SDS011;6974;53.606;9.872;2023-02-28T08:15:54;4.83;;;3.40;;
13805;SDS011;6974;53.606;9.872;2023-02-28T08:18:22;4.53;;;2.80;;
13805;SDS011;6974;53.606;9.872;2023-02-28T08:20:50;5.13;;;2.90;;
13805;SDS011;6974;53.606;9.872;2023-02-28T08:23:17;3.20;;;2.33;;
13805;SDS011;6974;53.606;9.872;2023-02-28T08:25:52;3.83;;;2.57;;
13805;SDS011;6974;53.606;9.872;2023-02-28T08:28:20;4.83;;;2.93;;
13805;SDS011;6974;53.606;9.872;2023-02-28T08:30:48;4.90;;;2.80;;
13805;SDS011;6974;53.606;9.872;2023-02-28T08:33:15;3.03;;;2.70;;
13805;SDS011;6974;53.606;9.872;2023-02-28T08:35:42;3.97;;;2.87;;
13805;SDS011;6974;53.606;9.872;2023-02-28T08:38:09;4.33;;;2.67;;
13805;SDS011;6974;53.606;9.872;2023-02-28T08:40:36;3.13;;;2.60;;
13805;SDS011;6974;53.606;9.872;2023-02-28T08:43:05;4.37;;;2.63;;
13805;SDS011;6974;53.606;9.872;2023-02-28T08:45:32;4.87;;;3.17;;
13805;SDS011;6974;53.606;9.872;2023-02-28T08:47:59;3.60;;;2.83;;
13805;SDS011;6974;53.606;9.872;2023-02-28T08:50:26;3.23;;;2.60;;
13805;SDS011;6974;53.606;9.872;2023-02-28T08:52:53;4.50;;;2.50;;
13805;SDS011;6974;53.606;9.872;2023-02-28T08:55:20;6.13;;;2.80;;
13805;SDS011;6974;53.606;9.872;2023-02-28T08:57:48;2.53;;;2.30;;
13805;SDS011;6974;53.606;9.872;2023-02-28T09:00:17;5.17;;;2.57;;
13805;SDS011;6974;53.606;9.872;2023-02-28T09:02:45;3.73;;;2.80;;
13805;SDS011;6974;53.606;9.872;2023-02-28T09:05:12;5.13;;;2.53;;
13805;SDS011;6974;53.606;9.872;2023-02-28T09:07:39;4.37;;;2.60;;
13805;SDS011;6974;53.606;9.872;2023-02-28T09:10:07;2.20;;;1.67;;
13805;SDS011;6974;53.606;9.872;2023-02-28T09:12:35;2.90;;;2.07;;
13805;SDS011;6974;53.606;9.872;2023-02-28T09:15:02;2.67;;;1.90;;
13805;SDS011;6974;53.606;9.872;2023-02-28T09:17:32;3.57;;;2.00;;
13805;SDS011;6974;53.606;9.872;2023-02-28T09:19:59;3.43;;;1.90;;
13805;SDS011;6974;53.606;9.872;2023-02-28T09:22:26;3.33;;;2.10;;
13805;SDS011;6974;53.606;9.872;2023-02-28T09:24:53;3.27;;;1.90;;
13805;SDS011;6974;53.606;9.872;2023-02-28T09:27:20;3.03;;;2.10;;
13805;SDS011;6974;53.606;9.872;2023-02-28T09:29:47;3.17;;;1.60;;
13805;SDS011;6974;53.606;9.872;2023-02-28T09:32:14;4.07;;;2.20;;
13805;SDS011;6974;53.606;9.872;2023-02-28T09:34:44;4.07;;;1.83;;
13805;SDS011;6974;53.606;9.872;2023-02-28T09:37:11;3.23;;;2.00;;
13805;SDS011;6974;53.606;9.872;2023-02-28T09:39:38;1.70;;;1.60;;
13805;SDS011;6974;53.606;9.872;2023-02-28T09:42:05;1.73;;;1.40;;
13805;SDS011;6974;53.606;9.872;2023-02-28T09:44:44;1.70;;;1.50;;
13805;SDS011;6974;53.606;9.872;2023-02-28T09:47:24;4.60;;;2.00;;
13805;SDS011;6974;53.606;9.872;2023-02-28T09:49:55;2.07;;;1.80;;
13805;SDS011;6974;53.606;9.872;2023-02-28T09:52:28;3.87;;;2.27;;
13805;SDS011;6974;53.606;9.872;2023-02-28T09:55:18;4.17;;;1.83;;
13805;SDS011;6974;53.606;9.872;2023-02-28T09:57:48;2.13;;;1.50;;
13805;SDS011;6974;53.606;9.872;2023-02-28T10:00:17;5.37;;;2.07;;
13805;SDS011;6974;53.606;9.872;2023-02-28T10:02:58;3.53;;;1.97;;
13805;SDS011;6974;53.606;9.872;2023-02-28T10:05:50;4.03;;;2.07;;
13805;SDS011;6974;53.606;9.872;2023-02-28T10:08:21;3.30;;;2.07;;
13805;SDS011;6974;53.606;9.872;2023-02-28T10:10:53;3.77;;;2.30;;
13805;SDS011;6974;53.606;9.872;2023-02-28T10:13:24;3.07;;;2.30;;
13805;SDS011;6974;53.606;9.872;2023-02-28T10:15:56;2.73;;;2.10;;
13805;SDS011;6974;53.606;9.872;2023-02-28T10:18:38;3.20;;;2.03;;
13805;SDS011;6974;53.606;9.872;2023-02-28T10:21:15;3.83;;;2.47;;
13805;SDS011;6974;53.606;9.872;2023-02-28T10:23:47;3.97;;;2.20;;
13805;SDS011;6974;53.606;9.872;2023-02-28T10:26:16;4.03;;;2.87;;
13805;SDS011;6974;53.606;9.872;2023-02-28T10:28:44;2.93;;;2.07;;
13805;SDS011;6974;53.606;9.872;2023-02-28T10:31:11;3.20;;;1.80;;
13805;SDS011;6974;53.606;9.872;2023-02-28T10:33:42;3.37;;;1.93;;
13805;SDS011;6974;53.606;9.872;2023-02-28T10:36:11;2.80;;;1.80;;
13805;SDS011;6974;53.606;9.872;2023-02-28T10:38:43;4.07;;;1.70;;
13805;SDS011;6974;53.606;9.872;2023-02-28T10:41:14;2.90;;;2.13;;
13805;SDS011;6974;53.606;9.872;2023-02-28T10:43:43;2.57;;;2.07;;
13805;SDS011;6974;53.606;9.872;2023-02-28T10:46:12;2.73;;;1.70;;
13805;SDS011;6974;53.606;9.872;2023-02-28T10:48:57;2.20;;;1.87;;
13805;SDS011;6974;53.606;9.872;2023-02-28T10:51:36;3.40;;;1.97;;
13805;SDS011;6974;53.606;9.872;2023-02-28T10:54:04;2.10;;;1.90;;
13805;SDS011;6974;53.606;9.872;2023-02-28T10:56:32;2.23;;;1.70;;
13805;SDS011;6974;53.606;9.872;2023-02-28T10:59:00;2.73;;;1.70;;
13805;SDS011;6974;53.606;9.872;2023-02-28T11:01:36;2.53;;;2.00;;
13805;SDS011;6974;53.606;9.872;2023-02-28T11:04:16;2.73;;;2.00;;
13805;SDS011;6974;53.606;9.872;2023-02-28T11:06:46;4.10;;;2.20;;
13805;SDS011;6974;53.606;9.872;2023-02-28T11:09:17;4.57;;;2.10;;
13805;SDS011;6974;53.606;9.872;2023-02-28T11:11:49;3.33;;;2.00;;
13805;SDS011;6974;53.606;9.872;2023-02-28T11:14:19;3.97;;;2.27;;
13805;SDS011;6974;53.606;9.872;2023-02-28T11:16:48;2.10;;;1.77;;
13805;SDS011;6974;53.606;9.872;2023-02-28T11:19:18;3.10;;;1.90;;
13805;SDS011;6974;53.606;9.872;2023-02-28T11:21:51;1.87;;;1.70;;
13805;SDS011;6974;53.606;9.872;2023-02-28T11:24:22;2.27;;;2.03;;
13805;SDS011;6974;53.606;9.872;2023-02-28T11:26:52;3.67;;;2.13;;
13805;SDS011;6974;53.606;9.872;2023-02-28T11:29:21;3.33;;;2.00;;
13805;SDS011;6974;53.606;9.872;2023-02-28T11:32:03;2.27;;;2.07;;
13805;SDS011;6974;53.606;9.872;2023-02-28T11:34:42;2.93;;;1.97;;
13805;SDS011;6974;53.606;9.872;2023-02-28T11:37:12;3.43;;;1.87;;
13805;SDS011;6974;53.606;9.872;2023-02-28T11:39:42;2.50;;;1.70;;
13805;SDS011;6974;53.606;9.872;2023-02-28T11:42:13;3.63;;;2.00;;
13805;SDS011;6974;53.606;9.872;2023-02-28T11:45:08;2.70;;;1.90;;
13805;SDS011;6974;53.606;9.872;2023-02-28T11:47:44;3.30;;;2.20;;
13805;SDS011;6974;53.606;9.872;2023-02-28T11:50:19;3.43;;;1.87;;
13805;SDS011;6974;53.606;9.872;2023-02-28T11:52:55;2.67;;;2.07;;
13805;SDS011;6974;53.606;9.872;2023-02-28T11:55:27;3.67;;;2.10;;
13805;SDS011;6974;53.606;9.872;2023-02-28T12:00:54;3.23;;;2.10;;
13805;SDS011;6974;53.606;9.872;2023-02-28T12:03:31;3.80;;;2.20;;
13805;SDS011;6974;53.606;9.872;2023-02-28T12:06:09;3.00;;;2.40;;
13805;SDS011;6974;53.606;9.872;2023-02-28T12:08:49;2.80;;;2.00;;
13805;SDS011;6974;53.606;9.872;2023-02-28T12:11:37;2.27;;;1.90;;
13805;SDS011;6974;53.606;9.872;2023-02-28T12:17:20;4.17;;;2.20;;
13805;SDS011;6974;53.606;9.872;2023-02-28T12:20:01;2.53;;;2.20;;
13805;SDS011;6974;53.606;9.872;2023-02-28T12:22:36;2.57;;;1.80;;
13805;SDS011;6974;53.606;9.872;2023-02-28T12:25:22;2.50;;;1.80;;
13805;SDS011;6974;53.606;9.872;2023-02-28T12:28:06;2.47;;;1.60;;
13805;SDS011;6974;53.606;9.872;2023-02-28T12:30:35;2.73;;;2.30;;
13805;SDS011;6974;53.606;9.872;2023-02-28T12:33:16;2.93;;;2.20;;
13805;SDS011;6974;53.606;9.872;2023-02-28T12:35:47;3.87;;;2.63;;
13805;SDS011;6974;53.606;9.872;2023-02-28T12:38:17;3.90;;;2.00;;
13805;SDS011;6974;53.606;9.872;2023-02-28T12:40:50;2.37;;;2.10;;
13805;SDS011;6974;53.606;9.872;2023-02-28T12:43:21;1.97;;;1.87;;
13805;SDS011;6974;53.606;9.872;2023-02-28T12:45:55;4.47;;;2.50;;
13805;SDS011;6974;53.606;9.872;2023-02-28T12:48:29;2.33;;;2.00;;
13805;SDS011;6974;53.606;9.872;2023-02-28T12:51:02;2.87;;;2.00;;
13805;SDS011;6974;53.606;9.872;2023-02-28T12:53:31;2.60;;;2.13;;
13805;SDS011;6974;53.606;9.872;2023-02-28T12:56:11;3.57;;;2.37;;
13805;SDS011;6974;53.606;9.872;2023-02-28T12:58:43;2.87;;;2.47;;
13805;SDS011;6974;53.606;9.872;2023-02-28T13:01:21;3.90;;;2.03;;
13805;SDS011;6974;53.606;9.872;2023-02-28T13:04:21;2.27;;;1.90;;
13805;SDS011;6974;53.606;9.872;2023-02-28T13:07:13;2.83;;;2.10;;
13805;SDS011;6974;53.606;9.872;2023-02-28T13:10:04;2.70;;;1.90;;
13805;SDS011;6974;53.606;9.872;2023-02-28T13:12:34;3.83;;;2.10;;
13805;SDS011;6974;53.606;9.872;2023-02-28T13:15:04;3.20;;;1.90;;
13805;SDS011;6974;53.606;9.872;2023-02-28T13:17:47;4.83;;;2.40;;
13805;SDS011;6974;53.606;9.872;2023-02-28T13:20:16;2.80;;;2.20;;
13805;SDS011;6974;53.606;9.872;2023-02-28T13:22:45;2.30;;;2.10;;
13805;SDS011;6974;53.606;9.872;2023-02-28T13:31:19;4.03;;;2.00;;
13805;SDS011;6974;53.606;9.872;2023-02-28T13:34:05;4.13;;;2.10;;
13805;SDS011;6974;53.606;9.872;2023-02-28T13:36:39;4.50;;;2.60;;
13805;SDS011;6974;53.606;9.872;2023-02-28T13:42:22;3.00;;;2.00;;
13805;SDS011;6974;53.606;9.872;2023-02-28T13:47:53;3.40;;;2.40;;
13805;SDS011;6974;53.606;9.872;2023-02-28T13:50:22;2.23;;;2.00;;
13805;SDS011;6974;53.606;9.872;2023-02-28T13:53:00;4.80;;;2.53;;
13805;SDS011;6974;53.606;9.872;2023-02-28T13:55:44;11.93;;;9.13;;
13805;SDS011;6974;53.606;9.872;2023-02-28T13:58:25;15.40;;;13.70;;
13805;SDS011;6974;53.606;9.872;2023-02-28T14:06:57;2.93;;;2.20;;
13805;SDS011;6974;53.606;9.872;2023-02-28T14:09:24;3.43;;;2.40;;
13805;SDS011;6974;53.606;9.872;2023-02-28T14:11:54;2.57;;;2.37;;
13805;SDS011;6974;53.606;9.872;2023-02-28T14:17:20;14.77;;;13.33;;
13805;SDS011;6974;53.606;9.872;2023-02-28T14:19:49;3.50;;;3.20;;
13805;SDS011;6974;53.606;9.872;2023-02-28T14:22:21;3.20;;;2.37;;
13805;SDS011;6974;53.606;9.872;2023-02-28T14:25:07;2.80;;;2.50;;
13805;SDS011;6974;53.606;9.872;2023-02-28T14:27:42;5.23;;;4.20;;
13805;SDS011;6974;53.606;9.872;2023-02-28T14:30:25;2.90;;;2.53;;
13805;SDS011;6974;53.606;9.872;2023-02-28T14:33:26;7.43;;;6.73;;
13805;SDS011;6974;53.606;9.872;2023-02-28T14:36:06;11.90;;;9.27;;
13805;SDS011;6974;53.606;9.872;2023-02-28T14:38:40;9.47;;;8.37;;
13805;SDS011;6974;53.606;9.872;2023-02-28T14:41:15;5.40;;;3.07;;
13805;SDS011;6974;53.606;9.872;2023-02-28T14:43:50;5.27;;;3.00;;
13805;SDS011;6974;53.606;9.872;2023-02-28T14:46:18;2.93;;;2.40;;
13805;SDS011;6974;53.606;9.872;2023-02-28T14:48:46;3.77;;;2.30;;
13805;SDS011;6974;53.606;9.872;2023-02-28T14:51:19;2.17;;;1.97;;
13805;SDS011;6974;53.606;9.872;2023-02-28T14:53:48;4.23;;;2.50;;
13805;SDS011;6974;53.606;9.872;2023-02-28T14:56:19;4.33;;;2.50;;
13805;SDS011;6974;53.606;9.872;2023-02-28T14:58:52;3.20;;;2.40;;
13805;SDS011;6974;53.606;9.872;2023-02-28T15:01:21;5.87;;;4.83;;
13805;SDS011;6974;53.606;9.872;2023-02-28T15:03:51;6.13;;;4.47;;
13805;SDS011;6974;53.606;9.872;2023-02-28T15:06:25;3.77;;;2.70;;
13805;SDS011;6974;53.606;9.872;2023-02-28T15:09:06;3.57;;;2.13;;
13805;SDS011;6974;53.606;9.872;2023-02-28T15:11:34;2.63;;;2.17;;
13805;SDS011;6974;53.606;9.872;2023-02-28T15:14:02;3.40;;;2.70;;
13805;SDS011;6974;53.606;9.872;2023-02-28T15:16:31;2.57;;;2.17;;
13805;SDS011;6974;53.606;9.872;2023-02-28T15:19:01;3.33;;;2.33;;
13805;SDS011;6974;53.606;9.872;2023-02-28T15:21:33;3.17;;;2.30;;
13805;SDS011;6974;53.606;9.872;2023-02-28T15:24:02;4.03;;;2.33;;
13805;SDS011;6974;53.606;9.872;2023-02-28T15:26:32;4.50;;;2.60;;
13805;SDS011;6974;53.606;9.872;2023-02-28T15:29:03;4.50;;;2.20;;
13805;SDS011;6974;53.606;9.872;2023-02-28T15:31:33;4.67;;;2.50;;
13805;SDS011;6974;53.606;9.872;2023-02-28T15:34:02;6.23;;;5.63;;
13805;SDS011;6974;53.606;9.872;2023-02-28T15:36:32;4.93;;;3.20;;
13805;SDS011;6974;53.606;9.872;2023-02-28T15:39:02;3.03;;;2.40;;
13805;SDS011;6974;53.606;9.872;2023-02-28T15:41:44;2.47;;;2.17;;
13805;SDS011;6974;53.606;9.872;2023-02-28T15:44:15;3.97;;;2.57;;
13805;SDS011;6974;53.606;9.872;2023-02-28T15:46:55;7.03;;;5.33;;
13805;SDS011;6974;53.606;9.872;2023-02-28T15:49:26;15.13;;;11.97;;
13805;SDS011;6974;53.606;9.872;2023-02-28T15:51:57;5.97;;;4.63;;